sensor_id;sensor_type;location;lat;lon;timestamp;P1;durP1;ratioP1;P2;durP2;ratioP2
52057;SDS011;38063;53.210;6.504;2023-04-01T00:00:17;9.23;;;6.53;;
52057;SDS011;38063;53.210;6.504;2023-04-01T00:02:43;10.15;;;6.55;;
52057;SDS011;38063;53.210;6.504;2023-04-01T00:05:09;10.73;;;6.40;;
52057;SDS011;38063;53.210;6.504;2023-04-01T00:07:39;11.18;;;7.15;;
52057;SDS011;38063;53.210;6.504;2023-04-01T00:10:06;9.15;;;6.50;;
52057;SDS011;38063;53.210;6.504;2023-04-01T00:12:32;9.43;;;7.45;;
52057;SDS011;38063;53.210;6.504;2023-04-01T00:14:59;10.25;;;7.00;;
52057;SDS011;38063;53.210;6.504;2023-04-01T00:17:25;11.52;;;6.57;;
52057;SDS011;38063;53.210;6.504;2023-04-01T00:19:51;8.63;;;6.68;;
52057;SDS011;38063;53.210;6.504;2023-04-01T00:22:16;11.18;;;7.30;;
52057;SDS011;38063;53.210;6.504;2023-04-01T00:24:42;10.48;;;7.72;;
52057;SDS011;38063;53.210;6.504;2023-04-01T00:27:08;11.95;;;7.30;;
52057;SDS011;38063;53.210;6.504;2023-04-01T00:29:34;10.80;;;7.53;;
52057;SDS011;38063;53.210;6.504;2023-04-01T00:31:59;9.70;;;8.00;;
52057;SDS011;38063;53.210;6.504;2023-04-01T00:34:25;12.35;;;7.63;;
52057;SDS011;38063;53.210;6.504;2023-04-01T00:36:51;9.07;;;6.97;;
52057;SDS011;38063;53.210;6.504;2023-04-01T00:39:18;9.88;;;7.25;;
52057;SDS011;38063;53.210;6.504;2023-04-01T00:41:44;10.43;;;7.22;;
52057;SDS011;38063;53.210;6.504;2023-04-01T00:46:47;11.85;;;7.40;;
52057;SDS011;38063;53.210;6.504;2023-04-01T00:49:14;8.77;;;6.75;;
52057;SDS011;38063;53.210;6.504;2023-04-01T00:51:43;10.50;;;7.75;;
52057;SDS011;38063;53.210;6.504;2023-04-01T00:54:13;11.25;;;7.47;;
52057;SDS011;38063;53.210;6.504;2023-04-01T00:56:54;10.18;;;7.30;;
52057;SDS011;38063;53.210;6.504;2023-04-01T00:59:27;13.15;;;7.68;;
52057;SDS011;38063;53.210;6.504;2023-04-01T01:01:57;10.30;;;7.35;;
52057;SDS011;38063;53.210;6.504;2023-04-01T01:04:27;9.93;;;7.07;;
52057;SDS011;38063;53.210;6.504;2023-04-01T01:09:36;12.85;;;8.43;;
52057;SDS011;38063;53.210;6.504;2023-04-01T01:12:11;11.80;;;8.32;;
52057;SDS011;38063;53.210;6.504;2023-04-01T01:20:04;10.95;;;8.10;;
52057;SDS011;38063;53.210;6.504;2023-04-01T01:25:32;13.25;;;8.40;;
52057;SDS011;38063;53.210;6.504;2023-04-01T01:28:15;12.85;;;8.65;;
52057;SDS011;38063;53.210;6.504;2023-04-01T01:31:02;12.88;;;8.27;;
52057;SDS011;38063;53.210;6.504;2023-04-01T01:34:00;13.98;;;8.35;;
52057;SDS011;38063;53.210;6.504;2023-04-01T01:36:59;14.65;;;8.35;;
52057;SDS011;38063;53.210;6.504;2023-04-01T01:39:35;13.77;;;8.60;;
52057;SDS011;38063;53.210;6.504;2023-04-01T01:42:06;13.93;;;9.20;;
52057;SDS011;38063;53.210;6.504;2023-04-01T01:44:34;12.73;;;9.00;;
52057;SDS011;38063;53.210;6.504;2023-04-01T01:47:02;12.07;;;8.48;;
52057;SDS011;38063;53.210;6.504;2023-04-01T01:49:28;13.75;;;9.20;;
52057;SDS011;38063;53.210;6.504;2023-04-01T01:51:57;14.73;;;9.68;;
52057;SDS011;38063;53.210;6.504;2023-04-01T01:54:22;13.63;;;9.70;;
52057;SDS011;38063;53.210;6.504;2023-04-01T01:56:49;14.20;;;9.55;;
52057;SDS011;38063;53.210;6.504;2023-04-01T01:59:20;14.30;;;9.48;;
52057;SDS011;38063;53.210;6.504;2023-04-01T02:01:51;12.93;;;9.40;;
52057;SDS011;38063;53.210;6.504;2023-04-01T02:04:19;13.68;;;10.13;;
52057;SDS011;38063;53.210;6.504;2023-04-01T02:06:58;16.45;;;9.77;;
52057;SDS011;38063;53.210;6.504;2023-04-01T02:09:27;12.57;;;9.18;;
52057;SDS011;38063;53.210;6.504;2023-04-01T02:12:01;12.77;;;9.50;;
52057;SDS011;38063;53.210;6.504;2023-04-01T02:14:40;14.43;;;9.57;;
52057;SDS011;38063;53.210;6.504;2023-04-01T02:17:11;12.27;;;9.32;;
52057;SDS011;38063;53.210;6.504;2023-04-01T02:19:40;11.90;;;8.40;;
52057;SDS011;38063;53.210;6.504;2023-04-01T02:22:18;12.85;;;8.75;;
52057;SDS011;38063;53.210;6.504;2023-04-01T02:24:49;12.43;;;8.63;;
52057;SDS011;38063;53.210;6.504;2023-04-01T02:27:17;14.32;;;9.00;;
52057;SDS011;38063;53.210;6.504;2023-04-01T02:29:44;14.20;;;9.38;;
52057;SDS011;38063;53.210;6.504;2023-04-01T02:32:09;12.52;;;8.65;;
52057;SDS011;38063;53.210;6.504;2023-04-01T02:34:35;13.38;;;8.52;;
52057;SDS011;38063;53.210;6.504;2023-04-01T02:37:02;12.10;;;8.85;;
52057;SDS011;38063;53.210;6.504;2023-04-01T02:39:27;11.70;;;7.97;;
52057;SDS011;38063;53.210;6.504;2023-04-01T02:41:53;13.93;;;8.38;;
52057;SDS011;38063;53.210;6.504;2023-04-01T02:44:18;14.88;;;9.63;;
52057;SDS011;38063;53.210;6.504;2023-04-01T02:46:44;12.43;;;8.45;;
52057;SDS011;38063;53.210;6.504;2023-04-01T02:49:10;15.80;;;8.45;;
52057;SDS011;38063;53.210;6.504;2023-04-01T02:51:36;13.45;;;8.45;;
52057;SDS011;38063;53.210;6.504;2023-04-01T02:54:01;15.38;;;8.82;;
52057;SDS011;38063;53.210;6.504;2023-04-01T02:56:27;14.25;;;9.40;;
52057;SDS011;38063;53.210;6.504;2023-04-01T02:58:53;13.65;;;8.27;;
52057;SDS011;38063;53.210;6.504;2023-04-01T03:01:19;12.32;;;8.73;;
52057;SDS011;38063;53.210;6.504;2023-04-01T03:03:45;11.63;;;8.65;;
52057;SDS011;38063;53.210;6.504;2023-04-01T03:06:12;13.65;;;9.20;;
52057;SDS011;38063;53.210;6.504;2023-04-01T03:08:39;15.95;;;9.65;;
52057;SDS011;38063;53.210;6.504;2023-04-01T03:11:06;13.70;;;9.77;;
52057;SDS011;38063;53.210;6.504;2023-04-01T03:13:32;15.55;;;9.90;;
52057;SDS011;38063;53.210;6.504;2023-04-01T03:15:58;13.88;;;9.40;;
52057;SDS011;38063;53.210;6.504;2023-04-01T03:18:23;16.00;;;10.10;;
52057;SDS011;38063;53.210;6.504;2023-04-01T03:20:49;14.63;;;10.07;;
52057;SDS011;38063;53.210;6.504;2023-04-01T03:23:15;17.23;;;10.32;;
52057;SDS011;38063;53.210;6.504;2023-04-01T03:25:46;14.50;;;10.30;;
52057;SDS011;38063;53.210;6.504;2023-04-01T03:28:12;15.68;;;10.10;;
52057;SDS011;38063;53.210;6.504;2023-04-01T03:30:38;17.83;;;11.73;;
52057;SDS011;38063;53.210;6.504;2023-04-01T03:33:05;18.88;;;11.90;;
52057;SDS011;38063;53.210;6.504;2023-04-01T03:35:31;18.23;;;11.90;;
52057;SDS011;38063;53.210;6.504;2023-04-01T03:37:57;17.52;;;11.77;;
52057;SDS011;38063;53.210;6.504;2023-04-01T03:40:23;19.40;;;11.38;;
52057;SDS011;38063;53.210;6.504;2023-04-01T03:42:51;21.52;;;12.55;;
52057;SDS011;38063;53.210;6.504;2023-04-01T03:45:17;17.27;;;11.95;;
52057;SDS011;38063;53.210;6.504;2023-04-01T03:47:43;21.75;;;13.25;;
52057;SDS011;38063;53.210;6.504;2023-04-01T03:50:09;20.52;;;11.85;;
52057;SDS011;38063;53.210;6.504;2023-04-01T03:52:35;18.83;;;12.32;;
52057;SDS011;38063;53.210;6.504;2023-04-01T03:55:01;20.88;;;13.27;;
52057;SDS011;38063;53.210;6.504;2023-04-01T03:57:27;20.35;;;12.57;;
52057;SDS011;38063;53.210;6.504;2023-04-01T03:59:53;20.13;;;12.60;;
52057;SDS011;38063;53.210;6.504;2023-04-01T04:02:18;18.75;;;12.52;;
52057;SDS011;38063;53.210;6.504;2023-04-01T04:04:44;20.80;;;13.10;;
52057;SDS011;38063;53.210;6.504;2023-04-01T04:07:12;20.95;;;13.57;;
52057;SDS011;38063;53.210;6.504;2023-04-01T04:09:38;21.23;;;13.00;;
52057;SDS011;38063;53.210;6.504;2023-04-01T04:12:03;20.30;;;13.13;;
52057;SDS011;38063;53.210;6.504;2023-04-01T04:14:30;19.92;;;13.75;;
52057;SDS011;38063;53.210;6.504;2023-04-01T04:16:56;21.30;;;13.50;;
52057;SDS011;38063;53.210;6.504;2023-04-01T04:19:22;19.35;;;12.85;;
52057;SDS011;38063;53.210;6.504;2023-04-01T04:21:49;23.73;;;13.40;;
52057;SDS011;38063;53.210;6.504;2023-04-01T04:24:14;19.23;;;12.75;;
52057;SDS011;38063;53.210;6.504;2023-04-01T04:26:40;23.05;;;13.10;;
52057;SDS011;38063;53.210;6.504;2023-04-01T04:29:05;19.60;;;12.73;;
52057;SDS011;38063;53.210;6.504;2023-04-01T04:31:31;22.58;;;13.65;;
52057;SDS011;38063;53.210;6.504;2023-04-01T04:33:58;23.85;;;13.40;;
52057;SDS011;38063;53.210;6.504;2023-04-01T04:36:26;24.80;;;12.73;;
52057;SDS011;38063;53.210;6.504;2023-04-01T04:38:51;19.85;;;13.30;;
52057;SDS011;38063;53.210;6.504;2023-04-01T04:41:18;23.08;;;13.73;;
52057;SDS011;38063;53.210;6.504;2023-04-01T04:43:51;21.48;;;14.32;;
52057;SDS011;38063;53.210;6.504;2023-04-01T04:46:21;21.13;;;13.45;;
52057;SDS011;38063;53.210;6.504;2023-04-01T04:48:47;21.55;;;14.25;;
52057;SDS011;38063;53.210;6.504;2023-04-01T04:51:13;21.70;;;13.68;;
52057;SDS011;38063;53.210;6.504;2023-04-01T04:53:43;22.05;;;13.38;;
52057;SDS011;38063;53.210;6.504;2023-04-01T04:56:09;22.25;;;14.18;;
52057;SDS011;38063;53.210;6.504;2023-04-01T04:58:35;21.45;;;13.90;;
52057;SDS011;38063;53.210;6.504;2023-04-01T05:01:05;22.25;;;14.07;;
52057;SDS011;38063;53.210;6.504;2023-04-01T05:03:32;23.35;;;14.02;;
52057;SDS011;38063;53.210;6.504;2023-04-01T05:05:57;21.27;;;13.88;;
52057;SDS011;38063;53.210;6.504;2023-04-01T05:08:23;23.00;;;14.70;;
52057;SDS011;38063;53.210;6.504;2023-04-01T05:10:49;21.33;;;13.88;;
52057;SDS011;38063;53.210;6.504;2023-04-01T05:13:14;23.10;;;14.20;;
52057;SDS011;38063;53.210;6.504;2023-04-01T05:15:40;20.95;;;14.07;;
52057;SDS011;38063;53.210;6.504;2023-04-01T05:18:06;21.58;;;14.40;;
52057;SDS011;38063;53.210;6.504;2023-04-01T05:20:31;22.48;;;14.10;;
52057;SDS011;38063;53.210;6.504;2023-04-01T05:22:58;22.55;;;13.60;;
52057;SDS011;38063;53.210;6.504;2023-04-01T05:25:24;22.05;;;14.70;;
52057;SDS011;38063;53.210;6.504;2023-04-01T05:27:50;23.50;;;13.98;;
52057;SDS011;38063;53.210;6.504;2023-04-01T05:30:16;20.17;;;12.98;;
52057;SDS011;38063;53.210;6.504;2023-04-01T05:32:42;20.25;;;12.68;;
52057;SDS011;38063;53.210;6.504;2023-04-01T05:35:09;18.65;;;12.32;;
52057;SDS011;38063;53.210;6.504;2023-04-01T05:37:35;21.25;;;13.52;;
52057;SDS011;38063;53.210;6.504;2023-04-01T05:40:01;19.20;;;12.75;;
52057;SDS011;38063;53.210;6.504;2023-04-01T05:42:27;21.25;;;13.73;;
52057;SDS011;38063;53.210;6.504;2023-04-01T05:44:53;24.20;;;14.13;;
52057;SDS011;38063;53.210;6.504;2023-04-01T05:47:20;22.80;;;13.68;;
52057;SDS011;38063;53.210;6.504;2023-04-01T05:49:46;25.02;;;14.43;;
52057;SDS011;38063;53.210;6.504;2023-04-01T05:52:12;20.38;;;13.38;;
52057;SDS011;38063;53.210;6.504;2023-04-01T05:54:38;18.98;;;12.48;;
52057;SDS011;38063;53.210;6.504;2023-04-01T05:57:03;21.27;;;12.50;;
52057;SDS011;38063;53.210;6.504;2023-04-01T05:59:29;20.40;;;12.38;;
52057;SDS011;38063;53.210;6.504;2023-04-01T06:01:56;18.52;;;12.35;;
52057;SDS011;38063;53.210;6.504;2023-04-01T06:04:22;17.20;;;11.45;;
52057;SDS011;38063;53.210;6.504;2023-04-01T06:06:48;19.35;;;11.57;;
52057;SDS011;38063;53.210;6.504;2023-04-01T06:09:18;19.55;;;12.18;;
52057;SDS011;38063;53.210;6.504;2023-04-01T06:34:21;21.33;;;14.52;;
52057;SDS011;38063;53.210;6.504;2023-04-01T06:47:54;23.95;;;15.23;;
52057;SDS011;38063;53.210;6.504;2023-04-01T06:53:20;24.95;;;15.95;;
52057;SDS011;38063;53.210;6.504;2023-04-01T06:55:55;23.45;;;15.27;;
52057;SDS011;38063;53.210;6.504;2023-04-01T06:58:26;28.02;;;16.73;;
52057;SDS011;38063;53.210;6.504;2023-04-01T07:00:56;26.95;;;16.85;;
52057;SDS011;38063;53.210;6.504;2023-04-01T07:03:35;27.40;;;16.65;;
52057;SDS011;38063;53.210;6.504;2023-04-01T07:06:06;27.20;;;17.02;;
52057;SDS011;38063;53.210;6.504;2023-04-01T07:08:58;27.83;;;17.17;;
52057;SDS011;38063;53.210;6.504;2023-04-01T07:11:29;29.27;;;17.13;;
52057;SDS011;38063;53.210;6.504;2023-04-01T07:14:01;28.33;;;17.85;;
52057;SDS011;38063;53.210;6.504;2023-04-01T07:16:35;30.13;;;17.90;;
52057;SDS011;38063;53.210;6.504;2023-04-01T07:19:11;26.52;;;17.50;;
52057;SDS011;38063;53.210;6.504;2023-04-01T07:21:47;26.73;;;17.33;;
52057;SDS011;38063;53.210;6.504;2023-04-01T07:24:21;26.65;;;16.60;;
52057;SDS011;38063;53.210;6.504;2023-04-01T07:26:53;26.38;;;17.27;;
52057;SDS011;38063;53.210;6.504;2023-04-01T07:29:20;25.20;;;16.33;;
52057;SDS011;38063;53.210;6.504;2023-04-01T07:31:59;26.10;;;17.83;;
52057;SDS011;38063;53.210;6.504;2023-04-01T07:37:25;23.50;;;15.68;;
52057;SDS011;38063;53.210;6.504;2023-04-01T07:43:13;26.70;;;16.50;;
52057;SDS011;38063;53.210;6.504;2023-04-01T07:45:53;25.23;;;16.08;;
52057;SDS011;38063;53.210;6.504;2023-04-01T07:48:42;25.70;;;15.60;;
52057;SDS011;38063;53.210;6.504;2023-04-01T07:51:13;20.25;;;14.23;;
52057;SDS011;38063;53.210;6.504;2023-04-01T07:56:30;26.30;;;15.48;;
52057;SDS011;38063;53.210;6.504;2023-04-01T07:59:21;22.02;;;15.85;;
52057;SDS011;38063;53.210;6.504;2023-04-01T08:07:41;25.98;;;15.93;;
52057;SDS011;38063;53.210;6.504;2023-04-01T08:10:23;24.17;;;15.70;;
52057;SDS011;38063;53.210;6.504;2023-04-01T08:13:12;22.42;;;15.02;;
52057;SDS011;38063;53.210;6.504;2023-04-01T08:21:44;18.73;;;13.45;;
52057;SDS011;38063;53.210;6.504;2023-04-01T08:24:34;21.52;;;14.23;;
52057;SDS011;38063;53.210;6.504;2023-04-01T08:27:20;16.42;;;11.73;;
52057;SDS011;38063;53.210;6.504;2023-04-01T08:30:23;19.00;;;11.80;;
52057;SDS011;38063;53.210;6.504;2023-04-01T08:33:13;16.20;;;11.32;;
52057;SDS011;38063;53.210;6.504;2023-04-01T08:38:30;19.65;;;12.50;;
52057;SDS011;38063;53.210;6.504;2023-04-01T09:00:15;11.57;;;7.43;;
52057;SDS011;38063;53.210;6.504;2023-04-01T09:03:14;10.20;;;7.35;;
52057;SDS011;38063;53.210;6.504;2023-04-01T09:09:03;8.40;;;6.32;;
52057;SDS011;38063;53.210;6.504;2023-04-01T09:17:51;9.32;;;6.13;;
52057;SDS011;38063;53.210;6.504;2023-04-01T09:26:21;6.53;;;4.70;;
52057;SDS011;38063;53.210;6.504;2023-04-01T09:40:08;5.50;;;3.20;;
52057;SDS011;38063;53.210;6.504;2023-04-01T09:43:01;5.10;;;3.08;;
52057;SDS011;38063;53.210;6.504;2023-04-01T09:45:35;4.32;;;3.30;;
52057;SDS011;38063;53.210;6.504;2023-04-01T09:53:43;7.15;;;3.33;;
52057;SDS011;38063;53.210;6.504;2023-04-01T09:59:20;4.43;;;3.30;;
52057;SDS011;38063;53.210;6.504;2023-04-01T10:11:03;5.55;;;3.05;;
52057;SDS011;38063;53.210;6.504;2023-04-01T11:15:39;5.55;;;2.97;;
52057;SDS011;38063;53.210;6.504;2023-04-01T11:30:47;3.72;;;2.22;;
52057;SDS011;38063;53.210;6.504;2023-04-01T11:35:36;4.35;;;2.25;;
52057;SDS011;38063;53.210;6.504;2023-04-01T12:00:37;2.97;;;1.85;;
52057;SDS011;38063;53.210;6.504;2023-04-01T12:14:19;4.55;;;2.13;;
52057;SDS011;38063;53.210;6.504;2023-04-01T12:17:25;2.50;;;2.00;;
52057;SDS011;38063;53.210;6.504;2023-04-01T12:20:17;3.72;;;1.88;;
52057;SDS011;38063;53.210;6.504;2023-04-01T12:31:53;2.30;;;1.77;;
52057;SDS011;38063;53.210;6.504;2023-04-01T12:42:30;3.00;;;2.00;;
52057;SDS011;38063;53.210;6.504;2023-04-01T12:45:28;2.97;;;1.80;;
52057;SDS011;38063;53.210;6.504;2023-04-01T12:50:46;2.30;;;1.80;;
52057;SDS011;38063;53.210;6.504;2023-04-01T12:56:59;2.88;;;1.80;;
52057;SDS011;38063;53.210;6.504;2023-04-01T13:11:02;2.83;;;1.92;;
52057;SDS011;38063;53.210;6.504;2023-04-01T13:16:31;3.67;;;2.03;;
52057;SDS011;38063;53.210;6.504;2023-04-01T13:19:18;4.03;;;1.58;;
52057;SDS011;38063;53.210;6.504;2023-04-01T13:29:31;3.45;;;1.90;;
52057;SDS011;38063;53.210;6.504;2023-04-01T13:35:23;2.35;;;1.77;;
52057;SDS011;38063;53.210;6.504;2023-04-01T13:42:55;2.72;;;1.83;;
52057;SDS011;38063;53.210;6.504;2023-04-01T13:45:24;4.50;;;1.90;;
52057;SDS011;38063;53.210;6.504;2023-04-01T14:02:55;1.67;;;1.40;;
52057;SDS011;38063;53.210;6.504;2023-04-01T14:11:39;3.03;;;1.52;;
52057;SDS011;38063;53.210;6.504;2023-04-01T14:22:53;2.42;;;1.50;;
52057;SDS011;38063;53.210;6.504;2023-04-01T14:34:03;2.17;;;1.33;;
52057;SDS011;38063;53.210;6.504;2023-04-01T14:42:23;2.50;;;1.60;;
52057;SDS011;38063;53.210;6.504;2023-04-01T14:52:41;2.22;;;1.45;;
52057;SDS011;38063;53.210;6.504;2023-04-01T14:55:20;2.47;;;1.70;;
52057;SDS011;38063;53.210;6.504;2023-04-01T15:22:56;4.85;;;2.55;;
52057;SDS011;38063;53.210;6.504;2023-04-01T15:36:27;4.13;;;2.33;;
52057;SDS011;38063;53.210;6.504;2023-04-01T15:58:29;4.80;;;3.17;;
52057;SDS011;38063;53.210;6.504;2023-04-01T16:01:07;6.05;;;3.20;;
52057;SDS011;38063;53.210;6.504;2023-04-01T16:03:55;7.90;;;3.55;;
52057;SDS011;38063;53.210;6.504;2023-04-01T16:06:39;5.53;;;3.65;;
52057;SDS011;38063;53.210;6.504;2023-04-01T16:17:43;7.38;;;3.92;;
52057;SDS011;38063;53.210;6.504;2023-04-01T16:34:40;7.80;;;4.18;;
52057;SDS011;38063;53.210;6.504;2023-04-01T16:37:29;9.45;;;4.43;;
52057;SDS011;38063;53.210;6.504;2023-04-01T16:42:52;5.82;;;3.58;;
52057;SDS011;38063;53.210;6.504;2023-04-01T16:47:56;9.40;;;4.30;;
52057;SDS011;38063;53.210;6.504;2023-04-01T16:50:43;8.80;;;3.83;;
52057;SDS011;38063;53.210;6.504;2023-04-01T16:56:24;8.90;;;4.60;;
52057;SDS011;38063;53.210;6.504;2023-04-01T17:01:31;7.45;;;4.55;;
52057;SDS011;38063;53.210;6.504;2023-04-01T17:04:10;9.55;;;4.60;;
52057;SDS011;38063;53.210;6.504;2023-04-01T17:07:05;8.18;;;5.28;;
52057;SDS011;38063;53.210;6.504;2023-04-01T17:15:55;9.63;;;4.18;;
52057;SDS011;38063;53.210;6.504;2023-04-01T17:21:10;8.77;;;4.75;;
52057;SDS011;38063;53.210;6.504;2023-04-01T17:32:08;8.15;;;4.50;;
52057;SDS011;38063;53.210;6.504;2023-04-01T17:34:58;7.03;;;4.32;;
52057;SDS011;38063;53.210;6.504;2023-04-01T17:41:03;8.63;;;4.30;;
52057;SDS011;38063;53.210;6.504;2023-04-01T17:43:48;10.77;;;4.72;;
52057;SDS011;38063;53.210;6.504;2023-04-01T17:48:54;10.35;;;4.70;;
52057;SDS011;38063;53.210;6.504;2023-04-01T17:54:49;11.75;;;5.07;;
52057;SDS011;38063;53.210;6.504;2023-04-01T18:05:51;9.45;;;4.80;;
52057;SDS011;38063;53.210;6.504;2023-04-01T18:08:42;10.15;;;5.43;;
52057;SDS011;38063;53.210;6.504;2023-04-01T18:11:39;11.10;;;5.15;;
52057;SDS011;38063;53.210;6.504;2023-04-01T18:19:40;8.30;;;4.63;;
52057;SDS011;38063;53.210;6.504;2023-04-01T18:30:56;15.30;;;5.22;;
52057;SDS011;38063;53.210;6.504;2023-04-01T18:33:41;15.25;;;5.63;;
52057;SDS011;38063;53.210;6.504;2023-04-01T18:36:38;9.88;;;5.20;;
52057;SDS011;38063;53.210;6.504;2023-04-01T18:39:37;8.60;;;4.97;;
52057;SDS011;38063;53.210;6.504;2023-04-01T18:42:14;13.73;;;5.28;;
52057;SDS011;38063;53.210;6.504;2023-04-01T18:50:52;15.00;;;5.90;;
52057;SDS011;38063;53.210;6.504;2023-04-01T18:53:28;12.85;;;5.78;;
52057;SDS011;38063;53.210;6.504;2023-04-01T18:56:35;10.90;;;5.43;;
52057;SDS011;38063;53.210;6.504;2023-04-01T18:59:39;10.98;;;5.45;;
52057;SDS011;38063;53.210;6.504;2023-04-01T19:02:14;9.32;;;4.93;;
52057;SDS011;38063;53.210;6.504;2023-04-01T19:05:12;10.73;;;5.28;;
52057;SDS011;38063;53.210;6.504;2023-04-01T19:07:46;13.68;;;5.90;;
52057;SDS011;38063;53.210;6.504;2023-04-01T19:18:53;8.95;;;4.55;;
52057;SDS011;38063;53.210;6.504;2023-04-01T19:29:21;10.70;;;5.20;;
52057;SDS011;38063;53.210;6.504;2023-04-01T19:35:19;10.35;;;5.88;;
52057;SDS011;38063;53.210;6.504;2023-04-01T19:38:09;15.18;;;6.00;;
52057;SDS011;38063;53.210;6.504;2023-04-01T19:40:57;12.00;;;5.47;;
52057;SDS011;38063;53.210;6.504;2023-04-01T19:43:44;12.65;;;5.07;;
52057;SDS011;38063;53.210;6.504;2023-04-01T19:46:26;8.98;;;5.30;;
52057;SDS011;38063;53.210;6.504;2023-04-01T19:57:46;12.90;;;5.68;;
52057;SDS011;38063;53.210;6.504;2023-04-01T20:16:59;10.05;;;4.72;;
52057;SDS011;38063;53.210;6.504;2023-04-01T20:19:34;10.32;;;5.18;;
52057;SDS011;38063;53.210;6.504;2023-04-01T20:22:16;10.80;;;4.47;;
52057;SDS011;38063;53.210;6.504;2023-04-01T20:24:51;9.48;;;4.82;;
52057;SDS011;38063;53.210;6.504;2023-04-01T20:27:22;10.15;;;4.40;;
52057;SDS011;38063;53.210;6.504;2023-04-01T20:41:07;9.75;;;3.85;;
52057;SDS011;38063;53.210;6.504;2023-04-01T20:44:04;12.20;;;4.47;;
52057;SDS011;38063;53.210;6.504;2023-04-01T20:54:53;10.80;;;4.30;;
52057;SDS011;38063;53.210;6.504;2023-04-01T20:57:44;10.00;;;4.00;;
52057;SDS011;38063;53.210;6.504;2023-04-01T21:06:09;9.63;;;4.05;;
52057;SDS011;38063;53.210;6.504;2023-04-01T21:09:06;7.65;;;4.10;;
52057;SDS011;38063;53.210;6.504;2023-04-01T21:15:02;11.55;;;3.88;;
52057;SDS011;38063;53.210;6.504;2023-04-01T21:18:04;8.98;;;3.90;;
52057;SDS011;38063;53.210;6.504;2023-04-01T21:29:14;9.50;;;3.95;;
52057;SDS011;38063;53.210;6.504;2023-04-01T21:35:08;12.73;;;4.45;;
52057;SDS011;38063;53.210;6.504;2023-04-01T21:37:41;12.18;;;3.70;;
52057;SDS011;38063;53.210;6.504;2023-04-01T21:40:32;7.72;;;3.78;;
52057;SDS011;38063;53.210;6.504;2023-04-01T22:05:16;10.50;;;4.63;;
52057;SDS011;38063;53.210;6.504;2023-04-01T22:13:35;6.85;;;3.58;;
52057;SDS011;38063;53.210;6.504;2023-04-01T22:16:14;6.85;;;3.45;;
52057;SDS011;38063;53.210;6.504;2023-04-01T22:22:00;7.78;;;3.55;;
52057;SDS011;38063;53.210;6.504;2023-04-01T22:30:55;11.88;;;3.97;;
52057;SDS011;38063;53.210;6.504;2023-04-01T22:33:29;9.05;;;4.03;;
52057;SDS011;38063;53.210;6.504;2023-04-01T22:36:24;7.60;;;3.53;;
52057;SDS011;38063;53.210;6.504;2023-04-01T22:39:02;8.23;;;3.22;;
52057;SDS011;38063;53.210;6.504;2023-04-01T22:42:06;6.80;;;3.03;;
52057;SDS011;38063;53.210;6.504;2023-04-01T22:53:37;9.80;;;3.30;;
52057;SDS011;38063;53.210;6.504;2023-04-01T22:56:01;4.90;;;2.50;;
52057;SDS011;38063;53.210;6.504;2023-04-01T22:58:40;6.95;;;2.63;;
52057;SDS011;38063;53.210;6.504;2023-04-01T23:01:12;9.35;;;3.30;;
52057;SDS011;38063;53.210;6.504;2023-04-01T23:03:42;7.72;;;2.75;;
52057;SDS011;38063;53.210;6.504;2023-04-01T23:06:57;9.18;;;3.50;;
52057;SDS011;38063;53.210;6.504;2023-04-01T23:09:19;6.97;;;2.53;;
52057;SDS011;38063;53.210;6.504;2023-04-01T23:12:03;6.30;;;2.50;;
52057;SDS011;38063;53.210;6.504;2023-04-01T23:17:15;4.93;;;2.95;;
52057;SDS011;38063;53.210;6.504;2023-04-01T23:31:31;7.10;;;2.75;;
52057;SDS011;38063;53.210;6.504;2023-04-01T23:34:03;8.18;;;2.47;;
52057;SDS011;38063;53.210;6.504;2023-04-01T23:36:42;7.43;;;2.72;;
52057;SDS011;38063;53.210;6.504;2023-04-01T23:44:50;6.80;;;3.45;;
52057;SDS011;38063;53.210;6.504;2023-04-01T23:47:24;6.82;;;2.67;;
52057;SDS011;38063;53.210;6.504;2023-04-01T23:49:57;4.13;;;2.63;;
52057;SDS011;38063;53.210;6.504;2023-04-01T23:52:36;6.40;;;2.60;;
52057;SDS011;38063;53.210;6.504;2023-04-01T23:55:26;7.72;;;2.83;;
